Hedensted, Denmark
Current Conditions -  °F | °C
As of 7:20 PM on Friday 19 Dec 2014 (Local Time) from EKBI Reporting Station
Broken Clouds Broken Clouds  
Wind Chill: 33°   Ceiling: 15000
Heat Index: 41°   Visibility: 6mi
Dew Point: 36°   Wind: 14mph
Humidity: 81%   Direction: 240°WSW
Pressure: 29.53"   Gusts: NA
Location:  55.77°N, 9.7°E
Report Text: EKBI 191820Z AUTO 24012KT 9999NDV FEW028/// SCT044///BKN150/// 05/02 Q1000
Loading
Personal Weather Stations






























Interactive Weather Map New forecast layout! Learn more

10-Day Weather Forecast

Advertisements
Track Severe Weather on mobile